Time;durP1;ratioP1;P1;durP2;ratioP2;P2;SDS_P1;SDS_P2;PMS_P1;PMS_P2;Temp;Humidity;BMP_temperature;BMP_pressure;BME280_temperature;BME280_humidity;BME280_pressure;Samples;Min_cycle;Max_cycle;Signal;HPM_P1;HPM_P2
2023/04/02 00:01:38;;;;;;;7.07;1.02;;;3.60;99.90;;;1.85;78.04;101151.66;4995748;28;20034;-81
2023/04/02 00:04:20;;;;;;;2.47;0.68;;;3.60;99.90;;;1.85;78.09;101147.31;4991479;28;20033;-80
2023/04/02 00:07:09;;;;;;;4.25;0.57;;;3.50;99.90;;;1.73;77.29;101157.78;4995030;28;20032;-78
2023/04/02 00:09:38;;;;;;;10.27;0.90;;;3.50;99.90;;;1.77;77.74;101159.50;4987012;28;20037;-81
2023/04/02 00:12:18;;;;;;;7.72;1.05;;;3.50;99.90;;;1.73;77.56;101167.28;4990871;28;20030;-81
2023/04/02 00:14:54;;;;;;;9.57;1.15;;;3.40;99.90;;;1.56;77.93;101169.94;4979756;28;20050;-80
2023/04/02 00:17:23;;;;;;;5.22;0.70;;;3.30;99.90;;;1.47;78.55;101182.91;5001273;28;20037;-82
2023/04/02 00:20:05;;;;;;;6.32;0.70;;;3.30;99.90;;;1.47;77.90;101182.91;4999938;28;20033;-81
2023/04/02 00:22:42;;;;;;;2.67;0.70;;;3.30;99.90;;;1.51;77.84;101180.34;4995924;28;20069;-81
2023/04/02 00:25:14;;;;;;;5.10;0.98;;;3.30;99.90;;;1.56;77.64;101185.53;5012103;28;20097;-81
2023/04/02 00:27:41;;;;;;;3.28;0.65;;;3.30;99.90;;;1.54;77.62;101177.72;4989068;28;20094;-81
2023/04/02 00:30:15;;;;;;;6.95;1.00;;;3.30;99.90;;;1.56;77.90;101178.59;4983882;28;20037;-81
2023/04/02 00:32:42;;;;;;;5.57;0.80;;;3.30;99.90;;;1.55;77.30;101191.56;4993063;28;20410;-80
2023/04/02 00:35:26;;;;;;;8.73;1.92;;;3.30;99.90;;;1.56;77.84;101196.75;4955260;28;20496;-82
2023/04/02 00:37:54;;;;;;;8.90;1.02;;;3.30;99.90;;;1.57;78.56;101195.03;5009968;28;20132;-82
2023/04/02 00:40:29;;;;;;;5.80;0.82;;;3.20;99.90;;;1.48;78.33;101198.50;5014443;28;20116;-82
2023/04/02 00:42:58;;;;;;;15.10;1.30;;;3.20;99.90;;;1.49;78.38;101201.94;5003056;28;20036;-81
2023/04/02 00:45:35;;;;;;;6.93;0.80;;;3.20;99.90;;;1.42;78.29;101209.75;4994780;28;20497;-82
2023/04/02 00:48:36;;;;;;;4.63;0.82;;;3.20;99.90;;;1.37;78.42;101208.88;5006662;28;21194;-82
2023/04/02 00:51:27;;;;;;;5.68;1.30;;;3.20;99.90;;;1.44;78.56;101205.41;4970149;28;20042;-82
2023/04/02 00:54:05;;;;;;;11.73;1.08;;;3.20;99.90;;;1.40;78.53;101206.31;4983624;28;20050;-81
2023/04/02 00:56:44;;;;;;;12.18;1.20;;;3.10;99.90;;;1.41;78.19;101207.16;5010903;28;20026;-81
2023/04/02 00:59:42;;;;;;;5.15;0.88;;;3.20;99.90;;;1.42;78.41;101209.75;5007108;28;20450;-83
2023/04/02 01:02:23;;;;;;;7.55;0.95;;;3.20;99.90;;;1.50;78.36;101211.47;5006033;28;20128;-81
2023/04/02 01:05:04;;;;;;;3.78;0.82;;;3.20;99.90;;;1.56;78.46;101212.31;4991002;28;20061;-81
2023/04/02 01:08:00;;;;;;;5.25;0.82;;;3.30;99.90;;;1.64;78.82;101223.56;4962511;28;20058;-81
2023/04/02 01:10:54;;;;;;;7.03;0.95;;;3.30;99.90;;;1.69;78.63;101223.56;4963066;28;20654;-81
2023/04/02 01:13:54;;;;;;;6.20;1.10;;;3.40;99.90;;;1.75;78.95;101227.84;4989681;28;20046;-80
2023/04/02 01:16:31;;;;;;;10.23;1.80;;;3.40;99.90;;;1.75;79.22;101231.34;4901747;28;24434;-81
2023/04/02 01:19:21;;;;;;;7.25;1.00;;;3.50;99.90;;;1.82;79.23;101232.19;4941192;28;20033;-81
2023/04/02 01:22:17;;;;;;;7.15;1.30;;;3.40;99.90;;;1.83;79.44;101236.50;4927363;28;20044;-79
2023/04/02 01:24:43;;;;;;;7.20;1.60;;;3.50;99.90;;;1.77;78.86;101242.59;4968552;28;20025;-81
2023/04/02 01:27:27;;;;;;;5.07;0.70;;;3.50;99.90;;;1.68;78.60;101242.59;4967708;28;20574;-80
2023/04/02 01:30:06;;;;;;;2.65;0.80;;;3.40;99.90;;;1.59;77.73;101240.88;4991589;28;20033;-82
2023/04/02 01:32:33;;;;;;;4.70;1.20;;;3.40;99.90;;;1.58;77.77;101246.94;4981285;28;20076;-81
2023/04/02 01:35:00;;;;;;;12.48;0.80;;;3.30;99.90;;;1.56;77.09;101242.63;4990717;28;20038;-82
2023/04/02 01:38:04;;;;;;;7.25;0.82;;;3.30;99.90;;;1.53;77.14;101250.38;4984626;28;20068;-82
2023/04/02 01:41:14;;;;;;;11.93;1.85;;;3.30;99.90;;;1.61;77.75;101253.84;4919732;28;20073;-80
2023/04/02 01:43:58;;;;;;;6.88;1.25;;;3.30;99.90;;;1.63;78.15;101254.72;4932069;28;20039;-81
2023/04/02 01:46:34;;;;;;;5.03;1.55;;;3.40;99.90;;;1.64;78.13;101272.00;4994943;28;20052;-82
2023/04/02 01:49:21;;;;;;;5.90;1.30;;;3.30;99.90;;;1.69;78.96;101266.84;4977423;28;20340;-81
2023/04/02 01:51:55;;;;;;;2.65;0.57;;;3.40;99.90;;;1.68;79.04;101273.72;5003411;28;20053;-82
2023/04/02 01:54:23;;;;;;;7.70;0.90;;;3.40;99.90;;;1.69;79.47;101285.88;4985858;28;20052;-81
2023/04/02 01:56:50;;;;;;;6.28;1.17;;;3.50;99.90;;;1.80;79.53;101285.84;4989103;28;20109;-81
2023/04/02 01:59:32;;;;;;;12.25;1.67;;;3.50;99.90;;;1.84;79.77;101292.78;4969682;28;20635;-83
2023/04/02 02:02:08;;;;;;;5.63;1.10;;;3.50;99.90;;;1.86;79.77;101298.84;4977465;28;20120;-83
2023/04/02 02:04:34;;;;;;;9.95;1.48;;;3.50;99.90;;;1.88;80.37;101298.81;4992465;28;20421;-82
2023/04/02 02:07:09;;;;;;;7.80;1.52;;;3.60;99.90;;;1.99;80.45;101300.53;5000777;28;20040;-80
2023/04/02 02:09:35;;;;;;;8.27;1.50;;;3.60;99.90;;;1.97;80.52;101304.88;4964981;28;20997;-79
2023/04/02 02:12:03;;;;;;;11.57;1.60;;;3.60;99.90;;;1.99;80.55;101310.06;4921075;28;20040;-83
2023/04/02 02:14:35;;;;;;;3.53;1.23;;;3.70;99.90;;;2.07;81.11;101312.63;4943073;28;20055;-80
2023/04/02 02:17:12;;;;;;;6.05;1.30;;;3.70;99.90;;;2.05;81.22;101310.91;4964668;28;20405;-80
2023/04/02 02:19:42;;;;;;;4.78;1.20;;;3.70;99.90;;;2.02;81.11;101316.09;4953121;28;20455;-82
2023/04/02 02:22:28;;;;;;;7.63;1.45;;;3.70;99.90;;;2.03;80.51;101316.97;4928665;28;20061;-81
2023/04/02 02:25:04;;;;;;;7.68;1.27;;;3.70;99.90;;;2.05;80.41;101325.63;4945231;28;20041;-82
2023/04/02 02:27:52;;;;;;;5.57;1.08;;;3.70;99.90;;;2.04;79.87;101323.91;4920946;28;20042;-82
2023/04/02 02:30:43;;;;;;;17.30;1.50;;;3.70;99.90;;;2.01;79.61;101331.72;4964091;28;20033;-81
2023/04/02 02:33:25;;;;;;;8.93;1.25;;;3.70;99.90;;;2.02;79.74;101328.22;4960716;28;20517;-81
2023/04/02 02:36:15;;;;;;;6.95;1.40;;;3.70;99.90;;;2.06;79.89;101340.34;4988562;28;20042;-82
2023/04/02 02:38:50;;;;;;;9.77;1.27;;;3.70;99.90;;;2.00;79.95;101333.41;4949017;28;20072;-81
2023/04/02 02:41:48;;;;;;;4.60;1.10;;;3.70;99.90;;;1.98;79.29;101336.88;5017972;22;20083;-80
2023/04/02 02:44:18;;;;;;;5.25;0.85;;;3.70;99.90;;;2.00;78.56;101356.78;4988020;28;20025;-80
2023/04/02 02:46:53;;;;;;;7.88;1.27;;;3.70;99.90;;;2.08;78.90;101353.34;5019751;28;20498;-81
2023/04/02 02:49:34;;;;;;;7.97;1.10;;;3.80;99.90;;;2.08;78.98;101359.41;5012007;28;20029;-81
2023/04/02 02:52:39;;;;;;;9.10;1.20;;;3.80;99.90;;;2.19;78.98;101369.78;5020367;28;20057;-81
2023/04/02 02:55:26;;;;;;;8.18;1.23;;;3.80;99.90;;;2.13;79.17;101374.97;4955163;28;20055;-79
2023/04/02 02:58:03;;;;;;;;;;;3.80;99.90;;;2.11;79.07;101387.97;4968580;28;20041;-82
2023/04/02 03:00:29;;;;;;;;;;;3.80;99.90;;;2.02;79.00;101382.78;5027028;23;19921;-80
2023/04/02 03:02:56;;;;;;;4.35;0.82;;;3.80;99.90;;;2.07;78.89;101394.03;5041471;28;19931;-81
2023/04/02 03:05:34;;;;;;;4.88;0.73;;;3.80;99.90;;;2.10;78.63;101395.78;5039702;28;20083;-82
2023/04/02 03:08:05;;;;;;;7.18;1.10;;;3.80;99.90;;;2.08;78.68;101400.09;5039167;28;20044;-81
2023/04/02 03:11:06;;;;;;;3.28;0.80;;;3.80;99.90;;;2.06;78.87;101389.72;5038396;28;20068;-80
2023/04/02 03:13:34;;;;;;;6.20;1.15;;;3.80;99.90;;;2.11;79.08;101394.91;5032389;28;20502;-82
2023/04/02 03:16:27;;;;;;;7.35;0.93;;;3.80;99.90;;;2.06;78.91;101400.09;5020681;28;20036;-81
2023/04/02 03:19:07;;;;;;;6.25;1.20;;;;;;;2.09;79.56;101405.28;5054306;28;20044;-82
2023/04/02 03:21:42;;;;;;;6.18;1.00;;;3.80;99.90;;;2.10;79.66;101400.97;5033577;28;20032;-82
2023/04/02 03:24:59;;;;;;;7.32;1.55;;;3.80;99.90;;;2.07;79.35;101412.19;5019443;28;20033;-81
2023/04/02 03:27:37;;;;;;;4.82;0.73;;;3.80;99.90;;;2.08;79.32;101413.94;4985750;28;20057;-80
2023/04/02 03:30:19;;;;;;;3.33;0.85;;;3.80;99.90;;;2.11;79.24;101411.34;5032606;28;20025;-81
2023/04/02 03:32:48;;;;;;;4.45;0.65;;;3.80;99.90;;;2.07;79.08;101416.53;5033853;28;20409;-81
2023/04/02 03:35:39;;;;;;;6.10;0.95;;;3.80;99.90;;;2.11;78.81;101428.66;5047284;28;20541;-81
2023/04/02 03:38:34;;;;;;;2.78;0.88;;;3.80;99.90;;;2.13;78.33;101435.59;5054726;28;20071;-81
2023/04/02 03:41:32;;;;;;;6.78;1.05;;;3.80;99.90;;;2.05;77.94;101442.50;5040675;28;20032;-81
2023/04/02 03:44:06;;;;;;;3.42;0.90;;;3.80;99.90;;;2.05;77.45;101447.72;5046027;28;20062;-81
2023/04/02 03:47:06;;;;;;;6.68;0.90;;;3.70;99.90;;;2.07;77.63;101451.16;5036245;28;20039;-82
2023/04/02 03:50:10;;;;;;;3.58;0.60;;;3.70;99.90;;;2.01;76.99;101459.00;5031163;28;20059;-82
2023/04/02 03:52:47;;;;;;;3.90;0.75;;;3.70;99.90;;;2.05;76.98;101460.69;5049126;28;20036;-80
2023/04/02 03:55:30;;;;;;;3.85;0.80;;;3.80;99.90;;;2.03;76.79;101472.81;5015484;28;20040;-80
2023/04/02 03:58:10;;;;;;;4.90;1.00;;;3.80;99.90;;;2.02;77.07;101479.75;5037862;28;20060;-80
2023/04/02 04:01:44;;;;;;;3.78;0.60;;;3.70;99.90;;;1.93;76.29;101476.28;5050784;28;20080;-79
2023/04/02 04:04:17;;;;;;;2.40;0.55;;;3.70;99.90;;;1.94;76.13;101485.81;5054091;28;20033;-80
2023/04/02 04:06:55;;;;;;;2.08;0.57;;;3.70;99.90;;;1.94;75.86;101489.25;5004145;28;20033;-80
2023/04/02 04:09:37;;;;;;;3.78;0.60;;;3.70;99.90;;;1.88;75.72;101493.59;5008325;28;20045;-82
2023/04/02 04:12:11;;;;;;;1.85;0.60;;;3.60;99.90;;;1.83;75.06;101497.03;5023863;28;20557;-81
2023/04/02 04:14:47;;;;;;;3.15;0.60;;;3.60;99.90;;;1.83;75.30;101516.94;5046393;28;20040;-80
2023/04/02 04:18:03;;;;;;;2.83;0.73;;;3.50;99.90;;;1.77;74.94;101502.25;5028795;28;20047;-79
2023/04/02 04:20:42;;;;;;;3.25;0.68;;;3.60;99.90;;;1.84;75.51;101514.38;5023858;22;20056;-82
2023/04/02 04:23:37;;;;;;;3.20;0.82;;;3.60;99.90;;;1.91;75.89;101515.25;5025649;28;20036;-81
2023/04/02 04:26:33;;;;;;;5.05;0.93;;;3.60;99.90;;;1.92;75.67;101518.69;5031998;28;20040;-83
2023/04/02 04:29:31;;;;;;;10.82;0.95;;;3.60;99.90;;;1.93;76.34;101526.50;5016232;28;20230;-81
2023/04/02 04:32:30;;;;;;;5.10;0.90;;;3.60;99.90;;;2.04;76.62;101542.09;4984430;28;20035;-81
2023/04/02 04:35:25;;;;;;;4.30;0.73;;;3.70;99.90;;;1.95;76.92;101537.75;4991958;28;20045;-82
2023/04/02 04:38:26;;;;;;;4.35;1.15;;;3.70;99.90;;;2.02;76.86;101539.50;4983866;28;20024;-82
2023/04/02 04:41:20;;;;;;;2.70;0.73;;;3.70;99.90;;;1.96;76.14;101549.00;4982573;28;20038;-81
2023/04/02 04:44:00;;;;;;;3.47;0.70;;;3.70;99.90;;;2.00;75.65;101548.16;5009117;28;20033;-83
2023/04/02 04:46:41;;;;;;;11.30;1.23;;;3.70;99.90;;;2.09;75.63;101550.75;4970407;28;20033;-82
2023/04/02 04:49:26;;;;;;;6.43;0.85;;;3.80;99.90;;;2.11;76.06;101553.38;4987879;28;20048;-81
2023/04/02 04:52:18;;;;;;;4.53;0.70;;;3.80;99.90;;;2.07;75.79;101559.44;4967686;28;20022;-81
2023/04/02 04:54:54;;;;;;;6.72;0.90;;;3.80;99.90;;;2.14;75.98;101567.25;4977355;28;20045;-82
2023/04/02 04:57:35;;;;;;;6.22;0.88;;;3.80;99.90;;;2.17;76.69;101562.03;5002704;28;20051;-82
2023/04/02 05:00:16;;;;;;;3.58;0.60;;;3.80;99.90;;;2.15;76.39;101581.97;5025236;28;20088;-81
2023/04/02 05:03:12;;;;;;;2.67;0.45;;;3.80;99.90;;;2.17;76.78;101576.78;5014827;28;20099;-82
2023/04/02 05:05:39;;;;;;;1.63;0.57;;;3.90;99.90;;;2.20;76.93;101593.25;4978750;28;20033;-82
2023/04/02 05:08:15;;;;;;;4.22;0.55;;;3.90;99.90;;;2.09;75.98;101581.94;4929661;28;20076;-80
2023/04/02 05:10:55;;;;;;;;;;;3.80;99.90;;;2.06;75.51;101581.94;4955702;28;20038;-80
2023/04/02 05:14:02;;;;;;;12.13;0.70;;;3.70;99.90;;;2.07;74.59;101577.63;4921936;28;19921;-82
2023/04/02 05:16:48;;;;;;;4.38;0.60;;;3.80;99.90;;;2.07;74.31;101593.19;4964684;28;20045;-81
2023/04/02 05:19:52;;;;;;;2.45;0.50;;;3.80;99.90;;;2.10;74.38;101599.28;4985353;23;20052;-83
2023/04/02 05:23:24;;;;;;;2.30;0.47;;;3.80;99.90;;;2.18;74.54;101602.78;4888874;28;20034;-81
2023/04/02 05:26:03;;;;;;;5.35;0.93;;;3.80;99.90;;;2.21;75.67;101607.09;4889150;28;20047;-82
2023/04/02 05:29:00;;;;;;;4.13;0.75;;;3.90;99.90;;;2.27;75.75;101607.13;4924586;28;20043;-81
2023/04/02 05:31:47;;;;;;;7.75;1.02;;;3.90;99.90;;;2.29;76.35;101620.97;4952331;28;20034;-81
2023/04/02 05:34:26;;;;;;;;;;;4.00;99.90;;;2.27;76.46;101622.72;4965562;28;20033;-82
2023/04/02 05:36:58;;;;;;;4.63;1.15;;;4.00;99.90;;;2.35;76.93;101627.91;4958793;28;19979;-82
2023/04/02 05:39:25;;;;;;;5.13;0.80;;;4.00;99.90;;;2.37;77.42;101639.16;4957855;28;20081;-80
2023/04/02 05:42:05;;;;;;;7.38;0.93;;;4.10;99.90;;;2.44;77.54;101633.09;4951411;28;20050;-81
2023/04/02 05:44:41;;;;;;;6.68;1.08;;;4.10;99.90;;;2.49;77.74;101634.00;4943287;28;20052;-81
2023/04/02 05:47:19;;;;;;;6.30;1.00;;;4.10;99.90;;;2.55;77.06;101652.22;5007489;28;20049;-79
2023/04/02 05:50:11;;;;;;;6.63;1.67;;;4.20;99.90;;;2.58;77.30;101654.81;4957282;28;20520;-82
2023/04/02 05:52:55;;;;;;;8.98;2.03;;;4.20;99.90;;;2.56;78.23;101663.47;4973923;28;20056;-81
2023/04/02 05:55:47;;;;;;;5.70;1.02;;;4.20;99.90;;;2.42;78.90;101663.47;4976335;28;20089;-82
2023/04/02 05:58:48;;;;;;;8.73;1.08;;;4.20;99.90;;;2.49;79.19;101669.53;4966946;28;20037;-82
2023/04/02 06:01:50;;;;;;;4.93;0.90;;;4.20;99.90;;;2.55;78.87;101691.22;4957567;28;20034;-81
2023/04/02 06:04:43;;;;;;;9.27;1.10;;;4.20;99.90;;;2.53;77.25;101684.25;4925180;28;20034;-81
2023/04/02 06:07:31;;;;;;;4.50;0.85;;;4.20;99.90;;;2.56;75.54;101698.13;4959089;28;20050;-82
2023/04/02 06:10:03;;;;;;;7.40;1.38;;;4.20;99.90;;;2.56;74.57;101708.53;4955351;28;20117;-81
2023/04/02 06:12:47;;;;;;;6.82;1.15;;;4.20;99.90;;;2.60;73.98;101702.47;4978678;28;20030;-82
2023/04/02 06:15:26;;;;;;;5.90;0.68;;;4.30;99.90;;;2.67;74.80;101712.00;4970968;28;20042;-81
2023/04/02 06:18:04;;;;;;;5.50;1.05;;;4.30;99.90;;;2.66;75.09;101707.69;4935963;28;20073;-82
2023/04/02 06:20:31;;;;;;;7.05;1.40;;;4.30;99.90;;;2.67;74.79;101726.75;4933811;28;20099;-82
2023/04/02 06:23:12;;;;;;;10.45;1.27;;;4.30;99.90;;;2.66;74.75;101720.69;4961461;28;20041;-83
2023/04/02 06:25:48;;;;;;;9.25;1.40;;;4.40;99.90;;;2.78;76.01;101725.03;4952176;28;20313;-82
2023/04/02 06:28:42;;;;;;;;;;;4.40;99.90;;;2.86;76.84;101731.13;4924509;28;20050;-82
2023/04/02 06:31:24;;;;;;;5.88;1.08;;;4.50;99.90;;;2.83;77.17;101735.44;4938997;28;19975;-82
2023/04/02 06:33:53;;;;;;;9.35;1.50;;;4.50;99.90;;;2.97;77.16;101744.16;4953747;28;20076;-81
2023/04/02 06:36:20;;;;;;;10.60;1.55;;;4.60;99.90;;;3.00;77.02;101751.97;4949641;28;20104;-82
2023/04/02 06:38:58;;;;;;;4.95;0.95;;;4.60;99.90;;;2.93;76.13;101749.34;4968140;28;20041;-83
2023/04/02 06:41:33;;;;;;;10.70;1.42;;;4.50;99.90;;;2.88;74.28;101752.81;4967952;28;20544;-82
2023/04/02 06:44:26;;;;;;;7.68;1.10;;;4.50;99.90;;;2.87;73.62;101755.41;4936650;28;20568;-81
2023/04/02 06:47:07;;;;;;;5.00;1.05;;;4.50;99.90;;;2.74;73.13;101777.91;4958862;28;20119;-80
2023/04/02 06:49:59;;;;;;;12.25;1.13;;;4.40;99.90;;;2.77;73.75;101764.94;4935586;28;20048;-82
2023/04/02 06:53:03;;;;;;;4.40;1.10;;;4.50;99.90;;;2.95;74.44;101784.03;4908551;28;20484;-81
2023/04/02 06:55:57;;;;;;;6.95;1.33;;;4.50;99.90;;;2.92;75.77;101789.25;4944945;28;20056;-82
2023/04/02 06:58:23;;;;;;;7.82;1.60;;;4.50;99.90;;;2.95;77.21;101790.09;4966136;28;20038;-80
2023/04/02 07:00:50;;;;;;;11.00;1.63;;;4.60;99.90;;;3.10;77.98;101797.06;4961040;28;20044;-81
2023/04/02 07:03:26;;;;;;;11.32;1.83;;;4.70;99.90;;;3.28;78.12;101788.41;4934551;28;20026;-81
2023/04/02 07:05:52;;;;;;;;;;;4.80;99.90;;;3.31;78.02;101793.63;4952714;28;20038;-82
2023/04/02 07:08:18;;;;;;;11.93;1.63;;;4.80;99.90;;;3.31;78.77;101809.25;4938469;28;20419;-83
2023/04/02 07:10:52;;;;;;;9.15;1.60;;;4.80;99.90;;;3.17;78.44;101810.97;4949761;28;20591;-82
2023/04/02 07:13:21;;;;;;;11.20;1.98;;;4.80;99.90;;;3.21;79.17;101810.97;4914038;28;20053;-82
2023/04/02 07:15:55;;;;;;;11.02;1.65;;;4.80;99.90;;;3.17;78.96;101805.75;4939412;28;20052;-80
2023/04/02 07:18:36;;;;;;;13.05;1.52;;;4.80;99.90;;;3.19;79.58;101819.66;4963803;28;20064;-81
2023/04/02 07:21:01;;;;;;;8.90;1.55;;;4.80;99.90;;;3.36;79.68;101823.13;4958512;28;20125;-81
2023/04/02 07:23:27;;;;;;;8.25;1.05;;;4.80;99.90;;;3.23;79.70;101822.25;4974806;28;20555;-81
2023/04/02 07:25:55;;;;;;;10.07;1.50;;;4.80;99.90;;;3.27;79.84;101833.53;4948691;28;20054;-83
2023/04/02 07:28:30;;;;;;;13.10;1.98;;;4.80;99.90;;;3.25;80.14;101827.47;4974056;28;20037;-83
2023/04/02 07:30:56;;;;;;;4.70;1.35;;;4.80;99.90;;;3.14;80.96;101837.84;4947578;28;20054;-80
2023/04/02 07:33:33;;;;;;;11.35;1.52;;;4.70;99.90;;;3.12;80.91;101833.53;4976958;28;20073;-81
2023/04/02 07:35:59;;;;;;;17.50;2.15;;;4.80;99.90;;;3.36;81.35;101845.69;4958300;28;20053;-81
2023/04/02 07:38:25;;;;;;;10.60;1.52;;;4.90;99.90;;;3.41;80.93;101846.56;4963045;28;20063;-81
2023/04/02 07:40:51;;;;;;;7.50;1.13;;;4.90;99.90;;;3.39;80.22;101849.19;4952225;28;20045;-82
2023/04/02 07:43:22;;;;;;;3.67;0.88;;;4.90;99.90;;;3.16;80.64;101856.09;4973197;28;20128;-82
2023/04/02 07:45:50;;;;;;;12.55;1.90;;;4.70;99.90;;;2.99;82.87;101859.50;4994007;28;20068;-81
2023/04/02 07:48:16;;;;;;;15.88;2.30;;;4.60;99.90;;;2.96;84.14;101863.81;4970076;28;20037;-82
2023/04/02 07:50:41;;;;;;;9.73;1.60;;;4.70;99.90;;;3.23;85.37;101863.03;4991277;28;20105;-83
2023/04/02 07:53:39;;;;;;;8.45;1.23;;;4.80;99.90;;;3.68;84.01;101872.63;4995612;28;20041;-80
2023/04/02 07:56:13;;;;;;;11.00;2.45;;;5.20;99.90;;;3.90;82.83;101883.03;4969702;28;20037;-80
2023/04/02 07:58:38;;;;;;;13.68;1.83;;;5.30;99.90;;;3.80;81.54;101877.00;4967940;28;20099;-81
2023/04/02 08:01:12;;;;;;;11.95;2.15;;;5.30;99.90;;;3.66;80.72;101883.91;4998169;28;20033;-79
2023/04/02 08:03:38;;;;;;;12.05;1.77;;;5.30;99.90;;;3.68;80.43;101885.66;4949297;28;20042;-80
2023/04/02 08:06:05;;;;;;;13.20;1.95;;;5.30;99.90;;;3.79;80.33;101885.66;5001571;28;20048;-81
2023/04/02 08:08:31;;;;;;;7.65;1.65;;;5.30;99.90;;;3.96;78.63;101885.66;4938874;28;20052;-81
2023/04/02 08:10:57;;;;;;;7.75;1.10;;;5.50;99.90;;;4.32;78.44;101910.81;4984535;28;20039;-80
2023/04/02 08:13:23;;;;;;;10.68;1.65;;;5.70;99.90;;;4.80;77.05;101904.59;4975879;28;20129;-82
2023/04/02 08:15:57;;;;;;;9.98;1.77;;;6.10;99.90;;;4.96;75.84;101921.06;4949870;28;20042;-80
2023/04/02 08:18:23;;;;;;;11.35;1.55;;;6.10;99.90;;;4.70;75.95;101917.66;4971425;28;20037;-80
2023/04/02 08:20:49;;;;;;;7.03;0.90;;;6.00;99.90;;;4.39;76.35;101931.66;4941422;28;20049;-79
2023/04/02 08:23:16;;;;;;;9.18;1.50;;;5.90;99.90;;;4.40;76.99;101933.41;4963201;28;20590;-79
2023/04/02 08:25:47;;;;;;;11.40;1.60;;;6.00;99.90;;;4.73;77.77;101942.91;4941543;28;20410;-82
2023/04/02 08:28:14;;;;;;;17.45;2.10;;;6.00;99.90;;;4.42;76.58;101929.91;4952917;28;20081;-78
2023/04/02 08:30:40;;;;;;;7.40;1.15;;;5.90;99.90;;;4.30;76.86;101925.59;4958181;28;20095;-82
2023/04/02 08:33:06;;;;;;;9.45;1.73;;;5.90;99.90;;;4.30;76.96;101936.03;4948130;28;20041;-79
2023/04/02 08:35:39;;;;;;;6.97;1.27;;;5.90;99.90;;;4.33;76.41;101940.34;4949260;28;20071;-80
2023/04/02 08:38:05;;;;;;;10.27;1.58;;;5.80;99.90;;;4.22;76.05;101952.53;4968466;28;20061;-79
2023/04/02 08:40:44;;;;;;;13.40;1.77;;;5.80;99.90;;;4.39;75.36;101955.13;4989743;28;20789;-80
2023/04/02 08:43:39;;;;;;;9.68;1.50;;;6.00;99.90;;;5.12;74.56;101951.47;4966878;28;20493;-81
2023/04/02 08:46:37;;;;;;;8.35;1.52;;;6.60;99.90;;;5.37;72.82;101953.94;4977132;28;20055;-79
2023/04/02 08:49:23;;;;;;;11.70;1.70;;;6.50;99.90;;;4.81;72.80;101961.13;4978444;28;20037;-79
2023/04/02 08:51:59;;;;;;;10.82;1.85;;;6.30;99.90;;;5.25;72.56;101970.56;4976318;28;20048;-81
2023/04/02 08:54:36;;;;;;;9.10;1.80;;;6.40;99.90;;;5.11;72.84;101968.84;4963620;28;20049;-79
2023/04/02 08:57:46;;;;;;;10.95;1.30;;;6.40;99.90;;;4.79;71.90;101975.91;4918961;28;20390;-80
2023/04/02 09:00:35;;;;;;;6.82;1.20;;;6.30;99.90;;;5.11;73.07;101989.72;4978266;28;20461;-81
2023/04/02 09:03:36;;;;;;;5.70;1.45;;;7.00;99.90;;;6.03;70.15;101970.09;4991395;28;20037;-82
2023/04/02 09:06:06;;;;;;;12.82;2.05;;;7.10;99.90;;;5.82;69.31;101986.75;4950466;28;20032;-80
2023/04/02 09:08:35;;;;;;;7.78;1.17;;;7.40;99.90;;;6.75;68.91;102011.28;4985068;28;20029;-82
2023/04/02 09:11:38;;;;;;;5.93;1.42;;;7.70;99.90;;;6.36;67.81;102004.69;4970272;28;20361;-82
2023/04/02 09:14:19;;;;;;;8.93;1.17;;;7.70;99.90;;;6.26;68.18;102003.88;5007422;28;20037;-79
2023/04/02 09:16:59;;;;;;;8.93;1.23;;;7.40;99.90;;;5.99;68.19;101997.13;4992600;28;20060;-81
2023/04/02 09:19:40;;;;;;;11.27;1.83;;;7.40;99.90;;;6.06;68.64;102003.19;5001182;28;20034;-81
2023/04/02 09:22:18;;;;;;;7.25;1.65;;;7.30;99.90;;;5.86;68.78;102011.13;4981504;28;20662;-80
2023/04/02 09:24:49;;;;;;;5.55;0.85;;;7.20;99.90;;;5.60;70.15;102004.31;4974002;28;20025;-80
2023/04/02 09:27:30;;;;;;;6.30;1.10;;;7.00;99.90;;;5.09;69.90;101999.31;4974040;28;20041;-79
2023/04/02 09:30:39;;;;;;;9.52;1.58;;;6.60;99.90;;;5.01;70.73;102008.03;5004352;28;21493;-81
2023/04/02 09:33:18;;;;;;;5.30;0.93;;;6.80;99.90;;;5.34;71.09;102001.84;4976983;28;20049;-81
2023/04/02 09:36:09;;;;;;;6.15;1.20;;;6.80;99.90;;;5.26;68.36;102014.06;5003028;28;20053;-80
2023/04/02 09:38:38;;;;;;;12.65;1.08;;;6.70;99.90;;;5.14;67.48;102015.84;4967939;28;20034;-80
2023/04/02 09:41:21;;;;;;;7.05;1.25;;;6.70;99.90;;;5.36;67.21;102028.81;4950719;28;20042;-80
2023/04/02 09:44:10;;;;;;;6.72;0.93;;;7.20;99.90;;;6.23;67.37;102034.44;4970392;28;20074;-80
2023/04/02 09:47:02;;;;;;;7.93;1.55;;;7.30;99.90;;;6.00;65.88;102042.44;4974512;28;20084;-80
2023/04/02 09:49:38;;;;;;;9.07;1.65;;;7.30;99.90;;;6.02;68.34;102048.53;4988258;28;20029;-82
2023/04/02 09:52:35;;;;;;;8.52;1.38;;;7.40;99.90;;;5.77;68.39;102048.66;4966388;28;20033;-79
2023/04/02 09:55:10;;;;;;;9.30;1.20;;;7.00;99.90;;;5.39;67.81;102054.06;4999383;28;20041;-81
2023/04/02 09:57:40;;;;;;;11.32;1.60;;;7.10;99.90;;;5.89;66.79;102068.63;4978218;28;20057;-79
2023/04/02 10:00:28;;;;;;;12.45;1.95;;;7.20;99.90;;;6.04;66.72;102073.78;4945242;28;20037;-81
2023/04/02 10:03:24;;;;;;;9.60;1.20;;;7.30;99.90;;;5.76;66.99;102070.44;4959213;28;20096;-81
2023/04/02 10:06:12;;;;;;;7.57;1.60;;;7.10;99.90;;;5.57;67.02;102072.25;4994582;28;20128;-80
2023/04/02 10:08:43;;;;;;;10.90;1.63;;;7.10;99.90;;;5.71;68.35;102078.28;4968221;28;20573;-81
2023/04/02 10:11:47;;;;;;;8.77;1.63;;;6.90;99.90;;;5.42;69.27;102075.81;4987067;28;20031;-81
2023/04/02 10:14:37;;;;;;;3.97;0.80;;;7.00;99.90;;;5.79;70.55;102093.94;4947350;28;20056;-79
2023/04/02 10:17:21;;;;;;;7.97;1.08;;;7.20;99.90;;;5.81;67.42;102094.81;5007444;28;20029;-78
2023/04/02 10:19:59;;;;;;;3.38;0.80;;;7.20;99.90;;;5.59;65.79;102088.78;4993544;28;20037;-79
2023/04/02 10:22:35;;;;;;;5.72;1.15;;;7.10;99.90;;;5.69;66.38;102095.72;4980985;28;20030;-80
2023/04/02 10:25:15;;;;;;;;;;;7.20;99.90;;;6.01;67.75;102099.97;5002729;28;20071;-80
2023/04/02 10:28:41;;;;;;;15.57;1.80;;;7.50;99.90;;;6.44;67.91;102106.69;4996315;28;20300;-78
2023/04/02 10:31:27;;;;;;;8.25;1.05;;;7.80;99.90;;;6.38;67.71;102104.09;4983363;28;20057;-79
2023/04/02 10:34:22;;;;;;;10.88;1.80;;;7.60;99.90;;;6.11;67.50;102111.22;4987446;28;20049;-80
2023/04/02 10:36:58;;;;;;;6.40;1.23;;;7.60;99.90;;;6.20;68.89;102112.91;4979612;28;20037;-80
2023/04/02 10:40:08;;;;;;;6.35;1.10;;;7.60;99.90;;;6.37;69.04;102116.28;4982847;28;20040;-80
2023/04/02 10:43:08;;;;;;;16.80;2.28;;;7.60;99.90;;;6.29;68.47;102125.97;4979363;28;20108;-80
2023/04/02 10:45:55;;;;;;;11.35;1.35;;;7.50;99.90;;;5.93;69.28;102127.84;4968519;28;20052;-81
2023/04/02 10:48:45;;;;;;;;;;;7.40;99.90;;;5.76;69.11;102127.94;4986529;28;20541;-80
2023/04/02 10:51:40;;;;;;;7.05;1.05;;;7.50;99.90;;;6.24;69.39;102127.72;4997984;28;19956;-80
2023/04/02 10:54:37;;;;;;;3.28;0.70;;;8.20;99.90;;;6.30;67.90;102139.00;4978065;28;20060;-81
2023/04/02 10:57:27;;;;;;;11.38;2.33;;;7.90;99.90;;;6.70;66.80;102143.13;4969566;28;20045;-80
2023/04/02 11:00:23;;;;;;;7.03;1.38;;;7.90;99.90;;;6.48;64.80;102150.22;4964952;28;20053;-81
2023/04/02 11:03:15;;;;;;;9.07;1.38;;;7.90;99.90;;;6.50;66.34;102143.22;4995729;28;20034;-79
2023/04/02 11:05:51;;;;;;;10.20;1.52;;;7.70;99.90;;;6.28;65.57;102153.84;5016118;28;20376;-79
2023/04/02 11:08:49;;;;;;;7.78;1.27;;;7.80;99.90;;;6.40;66.09;102154.66;4989492;28;20038;-79
2023/04/02 11:11:28;;;;;;;3.60;1.05;;;7.70;99.90;;;6.28;66.14;102159.06;4953637;28;20395;-78
2023/04/02 11:14:25;;;;;;;8.85;1.48;;;7.70;99.90;;;6.17;65.78;102173.97;4989859;28;20394;-80
2023/04/02 11:16:59;;;;;;;10.05;1.20;;;7.60;99.90;;;6.31;65.31;102181.75;4961347;28;20057;-81
2023/04/02 11:19:38;;;;;;;7.38;1.55;;;7.70;99.90;;;6.26;64.54;102183.50;4971090;28;20034;-79
2023/04/02 11:22:25;;;;;;;5.75;0.90;;;7.60;99.90;;;5.82;65.10;102181.94;4957716;28;20518;-79
2023/04/02 11:24:55;;;;;;;;;;;7.50;99.90;;;5.91;66.05;102185.38;4985123;28;20041;-79
2023/04/02 11:27:35;;;;;;;4.28;1.10;;;7.40;99.90;;;6.09;65.98;102192.31;4998400;28;19988;-79
2023/04/02 11:30:24;;;;;;;3.35;0.63;;;7.60;99.90;;;6.00;66.35;102197.56;4965748;28;20039;-81